Time;durP1;ratioP1;P1;durP2;ratioP2;P2;SDS_P1;SDS_P2;PMS_P1;PMS_P2;Temp;Humidity;BMP_temperature;BMP_pressure;BME280_temperature;BME280_humidity;BME280_pressure;Samples;Min_cycle;Max_cycle;Signal;HPM_P1;HPM_P2
2023/01/19 00:01:11;;;;;;;5.15;1.75;;;;;;;;;;5033810;28;20373;-75
2023/01/19 00:03:37;;;;;;;4.25;1.50;;;;;;;;;;5020667;28;20165;-75
2023/01/19 00:06:04;;;;;;;2.85;1.45;;;;;;;;;;5022301;28;20481;-75
2023/01/19 00:08:30;;;;;;;2.33;1.40;;;;;;;;;;5026256;28;20091;-75
2023/01/19 00:10:56;;;;;;;4.00;1.40;;;;;;;;;;5029509;28;20046;-75
2023/01/19 00:13:22;;;;;;;4.28;1.42;;;;;;;;;;5021425;28;20117;-75
2023/01/19 00:15:48;;;;;;;2.40;1.35;;;;;;;;;;5024884;28;20038;-75
2023/01/19 00:18:14;;;;;;;7.78;1.75;;;;;;;;;;5036769;28;20050;-75
2023/01/19 00:20:40;;;;;;;4.63;1.27;;;;;;;;;;5037543;28;20056;-75
2023/01/19 00:23:07;;;;;;;4.47;1.63;;;;;;;;;;5036807;28;20431;-75
2023/01/19 00:25:33;;;;;;;6.22;1.65;;;;;;;;;;5035981;28;20064;-74
2023/01/19 00:27:59;;;;;;;3.78;1.50;;;;;;;;;;5037329;28;20049;-74
2023/01/19 00:30:25;;;;;;;9.30;2.08;;;;;;;;;;5037370;28;20077;-74
2023/01/19 00:32:51;;;;;;;5.78;1.70;;;;;;;;;;5036243;28;20057;-74
2023/01/19 00:35:18;;;;;;;3.45;1.58;;;;;;;;;;5026472;28;20050;-74
2023/01/19 00:37:44;;;;;;;3.35;1.33;;;;;;;;;;5036731;28;20163;-74
2023/01/19 00:40:12;;;;;;;5.40;1.75;;;;;;;;;;5020299;28;20057;-74
2023/01/19 00:42:44;;;;;;;5.88;1.50;;;;;;;;;;5017070;28;20045;-74
2023/01/19 00:45:11;;;;;;;5.07;1.52;;;;;;;;;;5025605;28;20136;-74
2023/01/19 00:47:41;;;;;;;4.95;1.77;;;;;;;;;;5017564;28;20050;-74
2023/01/19 00:50:10;;;;;;;4.30;1.88;;;;;;;;;;5016826;28;20099;-74
2023/01/19 00:52:37;;;;;;;7.22;1.90;;;;;;;;;;5016897;28;20121;-74
2023/01/19 00:55:03;;;;;;;3.80;1.65;;;;;;;;;;5016985;28;20045;-74
2023/01/19 00:57:29;;;;;;;2.78;1.60;;;;;;;;;;5017375;28;20041;-74
2023/01/19 00:59:55;;;;;;;8.23;2.00;;;;;;;;;;5016986;28;20052;-74
2023/01/19 01:02:21;;;;;;;3.28;1.13;;;;;;;;;;5036096;28;20101;-74
2023/01/19 01:04:53;;;;;;;6.65;1.70;;;;;;;;;;5038729;28;20073;-74
2023/01/19 01:07:19;;;;;;;5.90;1.60;;;;;;;;;;5015808;28;20412;-74
2023/01/19 01:09:45;;;;;;;5.00;1.48;;;;;;;;;;5016425;28;20167;-75
2023/01/19 01:12:12;;;;;;;5.50;1.70;;;;;;;;;;5023022;28;20113;-75
2023/01/19 01:14:38;;;;;;;5.35;1.55;;;;;;;;;;5033700;28;20434;-74
2023/01/19 01:17:04;;;;;;;3.58;1.38;;;;;;;;;;5019234;28;20439;-73
2023/01/19 01:19:30;;;;;;;5.85;2.10;;;;;;;;;;5031499;28;20054;-74
2023/01/19 01:21:56;;;;;;;5.13;1.60;;;;;;;;;;5032998;28;20054;-74
2023/01/19 01:24:22;;;;;;;3.50;1.50;;;;;;;;;;5017734;28;20041;-74
2023/01/19 01:26:48;;;;;;;4.55;1.42;;;;;;;;;;5017831;28;20053;-74
2023/01/19 01:29:14;;;;;;;5.65;1.73;;;;;;;;;;5026245;28;20040;-74
2023/01/19 01:31:40;;;;;;;6.45;1.50;;;;;;;;;;5015812;28;20042;-74
2023/01/19 01:34:07;;;;;;;3.53;1.52;;;;;;;;;;5021903;28;20041;-74
2023/01/19 01:36:34;;;;;;;6.72;1.73;;;;;;;;;;5034985;28;20049;-74
2023/01/19 01:39:00;;;;;;;6.05;1.90;;;;;;;;;;5021507;28;20124;-74
2023/01/19 01:41:26;;;;;;;8.50;1.60;;;;;;;;;;5033066;28;20054;-74
2023/01/19 01:43:57;;;;;;;3.65;1.60;;;;;;;;;;5027843;28;20042;-74
2023/01/19 01:46:23;;;;;;;8.52;1.80;;;;;;;;;;5016208;28;20046;-74
2023/01/19 01:49:18;;;;;;;9.57;2.25;;;;;;;;;;5022616;28;20080;-74
2023/01/19 01:51:47;;;;;;;6.80;1.92;;;;;;;;;;5009834;28;20085;-75
2023/01/19 01:54:15;;;;;;;6.95;1.77;;;;;;;;;;5034865;28;20112;-75
2023/01/19 01:56:49;;;;;;;7.00;1.50;;;;;;;;;;5021275;28;20045;-75
2023/01/19 01:59:24;;;;;;;7.28;1.70;;;;;;;;;;5021182;28;20056;-75
2023/01/19 02:04:36;;;;;;;5.70;2.00;;;;;;;;;;5029697;28;20049;-75
2023/01/19 02:15:17;;;;;;;5.53;1.95;;;;;;;;;;5014942;28;20046;-75
2023/01/19 02:17:44;;;;;;;6.88;1.90;;;;;;;;;;5031423;28;20072;-75
2023/01/19 02:20:10;;;;;;;5.13;1.45;;;;;;;;;;5014908;28;20423;-74
2023/01/19 02:22:41;;;;;;;6.00;1.60;;;;;;;;;;5021077;28;20396;-74
2023/01/19 02:25:07;;;;;;;4.90;1.27;;;;;;;;;;5016737;28;20044;-73
2023/01/19 02:27:35;;;;;;;3.55;1.40;;;;;;;;;;5014832;28;20073;-73
2023/01/19 02:30:02;;;;;;;6.00;1.52;;;;;;;;;;5014617;28;20054;-73
2023/01/19 02:32:28;;;;;;;3.42;1.40;;;;;;;;;;5025321;28;20373;-73
2023/01/19 02:34:55;;;;;;;8.30;1.80;;;;;;;;;;5021325;28;20056;-73
2023/01/19 02:37:21;;;;;;;9.20;1.73;;;;;;;;;;5014450;28;20073;-73
2023/01/19 02:39:50;;;;;;;7.72;1.55;;;;;;;;;;5014504;28;20117;-74
2023/01/19 02:42:19;;;;;;;6.50;1.90;;;;;;;;;;5026764;28;20041;-74
2023/01/19 02:44:47;;;;;;;2.83;1.38;;;;;;;;;;5020947;28;20045;-74
2023/01/19 02:47:13;;;;;;;2.47;1.25;;;;;;;;;;5034545;28;20038;-74
2023/01/19 02:49:39;;;;;;;9.68;1.42;;;;;;;;;;5033520;28;20037;-74
2023/01/19 02:52:05;;;;;;;3.92;1.38;;;;;;;;;;5017749;28;20046;-74
2023/01/19 02:54:50;;;;;;;3.67;1.30;;;;;;;;;;5014054;28;20120;-74
2023/01/19 02:57:39;;;;;;;3.50;1.17;;;;;;;;;;5014200;28;20049;-73
2023/01/19 03:00:11;;;;;;;3.38;1.20;;;;;;;;;;5028046;28;20049;-73
2023/01/19 03:02:40;;;;;;;3.10;1.35;;;;;;;;;;5025690;28;20042;-73
2023/01/19 03:05:29;;;;;;;4.97;1.50;;;;;;;;;;5020459;28;20484;-73
2023/01/19 03:07:55;;;;;;;6.13;1.65;;;;;;;;;;5014714;28;20121;-74
2023/01/19 03:10:39;;;;;;;5.45;1.92;;;;;;;;;;5013835;28;20479;-74
2023/01/19 03:13:18;;;;;;;2.95;1.80;;;;;;;;;;5014006;28;20068;-74
2023/01/19 03:15:49;;;;;;;4.47;1.60;;;;;;;;;;5018960;28;20392;-74
2023/01/19 03:18:17;;;;;;;5.57;1.50;;;;;;;;;;5015207;28;20050;-73
2023/01/19 03:20:44;;;;;;;7.97;1.83;;;;;;;;;;5033155;28;20496;-74
2023/01/19 03:23:11;;;;;;;3.17;1.30;;;;;;;;;;5033399;28;20095;-74
2023/01/19 03:25:40;;;;;;;6.00;1.58;;;;;;;;;;5028984;28;20042;-74
2023/01/19 03:28:06;;;;;;;2.38;1.20;;;;;;;;;;5013775;28;20408;-74
2023/01/19 03:30:35;;;;;;;4.03;1.17;;;;;;;;;;5027769;28;20132;-74
2023/01/19 03:33:06;;;;;;;2.53;1.13;;;;;;;;;;5028986;28;20384;-74
2023/01/19 03:35:34;;;;;;;4.72;1.20;;;;;;;;;;5012799;28;20053;-75
2023/01/19 03:38:03;;;;;;;3.45;1.08;;;;;;;;;;5014311;28;20484;-74
2023/01/19 03:40:30;;;;;;;3.70;1.17;;;;;;;;;;5023621;28;20128;-74
2023/01/19 03:42:56;;;;;;;3.50;1.10;;;;;;;;;;5029333;28;20545;-73
2023/01/19 03:45:22;;;;;;;1.25;1.00;;;;;;;;;;5047129;28;20488;-73
2023/01/19 03:47:49;;;;;;;1.80;0.98;;;;;;;;;;5013939;28;20041;-74
2023/01/19 03:50:22;;;;;;;1.75;1.00;;;;;;;;;;5015710;28;20037;-74
2023/01/19 03:52:59;;;;;;;1.17;0.70;;;;;;;;;;5013805;28;20404;-74
2023/01/19 03:55:25;;;;;;;4.47;0.90;;;;;;;;;;5013685;28;20042;-74
2023/01/19 03:57:51;;;;;;;4.65;0.93;;;;;;;;;;5026311;28;20132;-74
2023/01/19 04:00:17;;;;;;;3.60;1.30;;;;;;;;;;5017790;28;20042;-74
2023/01/19 04:02:44;;;;;;;2.28;1.10;;;;;;;;;;5013607;28;20481;-74
2023/01/19 04:05:10;;;;;;;3.15;1.05;;;;;;;;;;5015794;28;20520;-74
2023/01/19 04:07:36;;;;;;;3.58;1.20;;;;;;;;;;5013650;28;20124;-74
2023/01/19 04:10:02;;;;;;;3.38;1.10;;;;;;;;;;5014853;28;20148;-74
2023/01/19 04:12:28;;;;;;;6.22;1.50;;;;;;;;;;5022225;28;20116;-74
2023/01/19 04:14:54;;;;;;;4.57;1.50;;;;;;;;;;5014754;28;20074;-74
2023/01/19 04:17:20;;;;;;;4.82;1.25;;;;;;;;;;5015709;28;20507;-74
2023/01/19 04:19:46;;;;;;;4.60;0.95;;;;;;;;;;5013119;28;20136;-75
2023/01/19 04:22:12;;;;;;;2.97;1.20;;;;;;;;;;5014118;28;20042;-75
2023/01/19 04:24:38;;;;;;;4.13;1.20;;;;;;;;;;5013198;28;20038;-74
2023/01/19 04:27:04;;;;;;;6.70;1.52;;;;;;;;;;5016114;28;20357;-74
2023/01/19 04:29:30;;;;;;;5.95;1.30;;;;;;;;;;5018578;28;20493;-74
2023/01/19 04:31:56;;;;;;;8.50;1.70;;;;;;;;;;5015282;28;20084;-75
2023/01/19 04:34:22;;;;;;;10.07;1.60;;;;;;;;;;5031950;28;20557;-75
2023/01/19 04:36:50;;;;;;;4.60;1.30;;;;;;;;;;5033589;28;20049;-75
2023/01/19 04:39:16;;;;;;;8.25;1.95;;;;;;;;;;5017987;28;20050;-75
2023/01/19 04:41:42;;;;;;;5.65;1.70;;;;;;;;;;5018709;28;20205;-75
2023/01/19 04:44:08;;;;;;;8.85;2.10;;;;;;;;;;5014851;28;20049;-75
2023/01/19 04:46:34;;;;;;;6.93;1.92;;;;;;;;;;5013433;28;20065;-75
2023/01/19 04:49:00;;;;;;;8.30;2.30;;;;;;;;;;5016252;28;20401;-75
2023/01/19 04:51:27;;;;;;;9.63;1.90;;;;;;;;;;5016667;28;20053;-75
2023/01/19 04:53:54;;;;;;;7.72;2.33;;;;;;;;;;5017123;28;20052;-75
2023/01/19 04:56:20;;;;;;;7.63;1.70;;;;;;;;;;5015250;28;20147;-75
2023/01/19 04:58:46;;;;;;;6.35;1.75;;;;;;;;;;5016669;28;20476;-75
2023/01/19 05:01:12;;;;;;;6.88;1.75;;;;;;;;;;5033487;28;20065;-75
2023/01/19 05:03:39;;;;;;;7.03;2.20;;;;;;;;;;5035896;28;20511;-75
2023/01/19 05:06:05;;;;;;;10.65;2.15;;;;;;;;;;5020420;28;20384;-75
2023/01/19 05:08:31;;;;;;;9.18;2.42;;;;;;;;;;5014839;28;20139;-75
2023/01/19 05:10:58;;;;;;;10.07;2.33;;;;;;;;;;5016255;28;20121;-75
2023/01/19 05:13:24;;;;;;;7.30;2.20;;;;;;;;;;5032242;28;20515;-75
2023/01/19 05:15:50;;;;;;;4.57;1.95;;;;;;;;;;5016122;28;20100;-75
2023/01/19 05:18:16;;;;;;;8.27;2.13;;;;;;;;;;5015743;28;20424;-75
2023/01/19 05:20:42;;;;;;;8.27;2.20;;;;;;;;;;5027972;28;20515;-75
2023/01/19 05:23:08;;;;;;;8.07;2.53;;;;;;;;;;5034251;28;20050;-75
2023/01/19 05:25:35;;;;;;;13.73;2.35;;;;;;;;;;5027672;28;20042;-75
2023/01/19 05:28:01;;;;;;;7.43;2.15;;;;;;;;;;5014724;28;20076;-75
2023/01/19 05:30:28;;;;;;;9.63;2.22;;;;;;;;;;5015934;28;20046;-75
2023/01/19 05:32:54;;;;;;;6.38;2.17;;;;;;;;;;5015808;28;20092;-76
2023/01/19 05:35:20;;;;;;;11.80;2.78;;;;;;;;;;5016110;28;20044;-75
2023/01/19 05:37:46;;;;;;;7.40;2.05;;;;;;;;;;5015626;28;20049;-75
2023/01/19 05:40:12;;;;;;;10.57;2.28;;;;;;;;;;5015832;28;20038;-76
2023/01/19 05:42:38;;;;;;;5.93;2.30;;;;;;;;;;5022905;28;20050;-76
2023/01/19 05:45:05;;;;;;;10.48;2.75;;;;;;;;;;5035294;28;20120;-76
2023/01/19 05:47:31;;;;;;;9.20;1.67;;;;;;;;;;5030092;28;20042;-75
2023/01/19 05:49:57;;;;;;;6.30;1.92;;;;;;;;;;5035290;28;20042;-75
2023/01/19 05:52:23;;;;;;;6.68;1.80;;;;;;;;;;5034253;28;20041;-75
2023/01/19 05:54:50;;;;;;;6.20;1.88;;;;;;;;;;5015643;28;20065;-74
2023/01/19 05:57:16;;;;;;;6.00;1.50;;;;;;;;;;5015426;28;20034;-74
2023/01/19 05:59:43;;;;;;;7.95;1.70;;;;;;;;;;5014914;28;20042;-74
2023/01/19 06:02:09;;;;;;;3.30;1.73;;;;;;;;;;5015546;28;20392;-74
2023/01/19 06:04:35;;;;;;;5.50;1.50;;;;;;;;;;5015894;28;20089;-74
2023/01/19 06:07:01;;;;;;;4.22;1.55;;;;;;;;;;5016187;28;20122;-74
2023/01/19 06:09:28;;;;;;;5.63;2.15;;;;;;;;;;5015067;28;20045;-74
2023/01/19 06:11:56;;;;;;;7.00;1.88;;;;;;;;;;5014854;28;20394;-74
2023/01/19 06:14:22;;;;;;;7.88;2.08;;;;;;;;;;5015248;28;20081;-75
2023/01/19 06:16:48;;;;;;;5.35;1.65;;;;;;;;;;5013692;28;20056;-74
2023/01/19 06:19:14;;;;;;;6.40;2.00;;;;;;;;;;5015035;28;20100;-75
2023/01/19 06:21:40;;;;;;;7.65;2.33;;;;;;;;;;5031713;28;20103;-75
2023/01/19 06:24:07;;;;;;;9.40;2.47;;;;;;;;;;5035187;28;20155;-74
2023/01/19 06:26:33;;;;;;;9.38;2.60;;;;;;;;;;5029594;28;20048;-75
2023/01/19 06:28:59;;;;;;;9.48;2.58;;;;;;;;;;5034524;28;20041;-75
2023/01/19 06:31:25;;;;;;;11.02;2.55;;;;;;;;;;5034971;28;20044;-75
2023/01/19 06:33:51;;;;;;;15.43;2.60;;;;;;;;;;5024298;28;20042;-75
2023/01/19 06:36:17;;;;;;;11.00;2.75;;;;;;;;;;4997422;28;20107;-75
2023/01/19 06:38:45;;;;;;;8.77;2.42;;;;;;;;;;5014446;28;20033;-75
2023/01/19 06:41:11;;;;;;;7.65;2.30;;;;;;;;;;5017685;28;20591;-75
2023/01/19 06:43:37;;;;;;;8.65;2.08;;;;;;;;;;5029875;28;20049;-75
2023/01/19 06:46:03;;;;;;;5.38;1.90;;;;;;;;;;5014775;28;20116;-75
2023/01/19 06:48:30;;;;;;;7.68;2.03;;;;;;;;;;5014882;28;20046;-75
2023/01/19 06:50:56;;;;;;;7.45;2.35;;;;;;;;;;4996762;28;20046;-75
2023/01/19 06:53:22;;;;;;;5.32;2.40;;;;;;;;;;5017543;28;20088;-75
2023/01/19 06:55:48;;;;;;;7.30;2.30;;;;;;;;;;5032652;28;20041;-75
2023/01/19 06:58:14;;;;;;;9.15;2.25;;;;;;;;;;5034314;28;20048;-75
2023/01/19 07:00:41;;;;;;;10.85;2.40;;;;;;;;;;5030849;28;20045;-75
2023/01/19 07:03:08;;;;;;;10.52;2.53;;;;;;;;;;5032558;28;20053;-75
2023/01/19 07:05:34;;;;;;;9.52;3.28;;;;;;;;;;5023546;28;20077;-74
2023/01/19 07:08:00;;;;;;;11.23;2.40;;;;;;;;;;5033844;28;20052;-74
2023/01/19 07:10:26;;;;;;;16.65;3.38;;;;;;;;;;5033706;28;20049;-74
2023/01/19 07:12:52;;;;;;;8.35;2.38;;;;;;;;;;5016593;28;20121;-74
2023/01/19 07:15:20;;;;;;;10.10;2.35;;;;;;;;;;5019163;28;20120;-74
2023/01/19 07:17:46;;;;;;;11.02;3.55;;;;;;;;;;5017119;28;20062;-74
2023/01/19 07:20:13;;;;;;;17.73;2.92;;;;;;;;;;5013584;28;20448;-74
2023/01/19 07:22:40;;;;;;;17.48;3.08;;;;;;;;;;5014977;28;20065;-75
2023/01/19 07:25:06;;;;;;;16.13;3.20;;;;;;;;;;5027478;28;20045;-75
2023/01/19 07:27:32;;;;;;;13.73;2.90;;;;;;;;;;5014449;28;20049;-74
2023/01/19 07:30:00;;;;;;;13.43;2.65;;;;;;;;;;5019238;28;20348;-74
2023/01/19 07:32:26;;;;;;;11.27;2.35;;;;;;;;;;5013528;28;20403;-74
2023/01/19 07:34:52;;;;;;;9.15;2.28;;;;;;;;;;5024987;28;20081;-74
2023/01/19 07:37:18;;;;;;;7.68;2.30;;;;;;;;;;5026972;28;20504;-74
2023/01/19 07:39:44;;;;;;;7.35;2.10;;;;;;;;;;5028832;28;20046;-75
2023/01/19 07:42:11;;;;;;;6.47;2.22;;;;;;;;;;5025676;28;20391;-75
2023/01/19 07:44:37;;;;;;;11.02;2.45;;;;;;;;;;5033652;28;20527;-75
2023/01/19 07:47:06;;;;;;;12.00;3.13;;;;;;;;;;5019470;28;20049;-75
2023/01/19 07:49:32;;;;;;;15.27;3.33;;;;;;;;;;5031866;28;20111;-75
2023/01/19 07:51:58;;;;;;;11.45;2.80;;;;;;;;;;5027196;28;20037;-80
2023/01/19 07:54:24;;;;;;;11.27;2.55;;;;;;;;;;5028494;28;20055;-75
2023/01/19 07:56:53;;;;;;;14.75;3.30;;;;;;;;;;5014587;28;20042;-75
2023/01/19 07:59:19;;;;;;;10.35;2.60;;;;;;;;;;5014596;28;20500;-78
2023/01/19 08:01:45;;;;;;;7.30;2.40;;;;;;;;;;5014156;28;20484;-77
2023/01/19 08:04:11;;;;;;;11.90;2.65;;;;;;;;;;5014469;28;20096;-75
2023/01/19 08:06:38;;;;;;;9.27;2.17;;;;;;;;;;5020914;28;20049;-75
2023/01/19 08:09:05;;;;;;;7.47;1.90;;;;;;;;;;5020567;28;20042;-75
2023/01/19 08:11:31;;;;;;;7.65;2.70;;;;;;;;;;5032263;28;20132;-75
2023/01/19 08:13:58;;;;;;;9.93;2.20;;;;;;;;;;5023685;28;20052;-75
2023/01/19 08:16:24;;;;;;;6.32;2.00;;;;;;;;;;5013747;28;20053;-75
2023/01/19 08:18:50;;;;;;;6.55;2.45;;;;;;;;;;5013579;28;20058;-75
2023/01/19 08:21:16;;;;;;;8.68;2.58;;;;;;;;;;5018738;28;20493;-75
2023/01/19 08:23:43;;;;;;;10.73;2.55;;;;;;;;;;5029784;28;20484;-75
2023/01/19 08:26:32;;;;;;;9.52;2.50;;;;;;;;;;5033580;28;20045;-75
2023/01/19 08:29:01;;;;;;;12.43;3.03;;;;;;;;;;5026414;28;20053;-75
2023/01/19 08:31:27;;;;;;;6.10;2.47;;;;;;;;;;5023266;28;20053;-75
2023/01/19 08:33:53;;;;;;;5.45;1.90;;;;;;;;;;5016607;28;20044;-77
2023/01/19 08:36:21;;;;;;;3.25;1.35;;;;;;;;;;5031129;28;20048;-76
2023/01/19 08:38:47;;;;;;;6.20;1.20;;;;;;;;;;5029879;28;20050;-75
2023/01/19 08:41:15;;;;;;;4.20;1.27;;;;;;;;;;5035754;28;20049;-75
2023/01/19 08:43:41;;;;;;;4.07;1.33;;;;;;;;;;5035560;28;20085;-75
2023/01/19 08:46:08;;;;;;;4.30;1.80;;;;;;;;;;5017769;28;20420;-75
2023/01/19 08:48:34;;;;;;;5.93;1.77;;;;;;;;;;5015588;28;20077;-75
2023/01/19 08:51:00;;;;;;;4.57;1.40;;;;;;;;;;5027579;28;20042;-75
2023/01/19 08:53:26;;;;;;;8.93;2.00;;;;;;;;;;5030745;28;20403;-75
2023/01/19 08:55:58;;;;;;;4.50;1.77;;;;;;;;;;5018842;28;20057;-75
2023/01/19 08:58:24;;;;;;;4.63;1.92;;;;;;;;;;5017137;28;20100;-75
2023/01/19 09:00:51;;;;;;;6.80;2.17;;;;;;;;;;5021729;28;20108;-75
2023/01/19 09:03:17;;;;;;;12.40;2.22;;;;;;;;;;5035983;28;20053;-74
2023/01/19 09:05:44;;;;;;;7.60;1.90;;;;;;;;;;5030905;28;20033;-75
2023/01/19 09:08:11;;;;;;;5.75;2.20;;;;;;;;;;5018138;28;20042;-75
2023/01/19 09:10:38;;;;;;;11.48;2.72;;;;;;;;;;5016672;28;20054;-75
2023/01/19 09:13:05;;;;;;;6.65;2.08;;;;;;;;;;5018612;28;20048;-75
2023/01/19 09:15:34;;;;;;;8.18;2.28;;;;;;;;;;4999157;28;20054;-77
2023/01/19 09:18:00;;;;;;;8.57;2.20;;;;;;;;;;5018456;28;20053;-75
2023/01/19 09:20:27;;;;;;;8.98;2.03;;;;;;;;;;5027957;28;20049;-75
2023/01/19 09:22:55;;;;;;;9.10;2.30;;;;;;;;;;5035737;28;20049;-75
2023/01/19 09:25:21;;;;;;;9.00;2.20;;;;;;;;;;5025888;28;20125;-75
2023/01/19 09:27:47;;;;;;;11.75;2.75;;;;;;;;;;5034912;28;20057;-75
2023/01/19 09:30:13;;;;;;;9.02;2.40;;;;;;;;;;5035835;28;20045;-75
2023/01/19 09:32:39;;;;;;;8.95;2.58;;;;;;;;;;5034637;28;20051;-75
2023/01/19 09:35:05;;;;;;;8.75;2.53;;;;;;;;;;5018492;28;20045;-76
2023/01/19 09:37:31;;;;;;;9.50;2.95;;;;;;;;;;5010435;28;20042;-75
2023/01/19 09:39:57;;;;;;;9.52;2.33;;;;;;;;;;5016200;28;20043;-75
2023/01/19 09:42:43;;;;;;;9.40;2.58;;;;;;;;;;5015818;28;20060;-75
2023/01/19 09:45:28;;;;;;;8.63;3.17;;;;;;;;;;5015660;28;20053;-75
2023/01/19 09:47:54;;;;;;;5.55;2.15;;;;;;;;;;5016280;28;20042;-75
2023/01/19 09:50:26;;;;;;;9.38;2.65;;;;;;;;;;5015658;28;20046;-75
2023/01/19 09:52:56;;;;;;;9.68;2.10;;;;;;;;;;5021587;28;20121;-75
2023/01/19 09:55:25;;;;;;;10.13;2.78;;;;;;;;;;5015459;28;20380;-75
2023/01/19 09:57:51;;;;;;;7.50;1.83;;;;;;;;;;5015225;28;20037;-75
2023/01/19 10:00:18;;;;;;;9.68;2.25;;;;;;;;;;5015995;28;20034;-75
2023/01/19 10:03:14;;;;;;;9.18;2.40;;;;;;;;;;5015649;28;20096;-75
2023/01/19 10:05:45;;;;;;;10.57;2.13;;;;;;;;;;5015175;28;20045;-75
2023/01/19 10:08:12;;;;;;;8.45;2.40;;;;;;;;;;5017162;28;20076;-75
2023/01/19 10:10:41;;;;;;;5.03;2.00;;;;;;;;;;5019030;28;20055;-76
2023/01/19 10:13:16;;;;;;;7.13;2.05;;;;;;;;;;5033763;28;20051;-78
2023/01/19 10:15:54;;;;;;;7.90;2.53;;;;;;;;;;5033754;28;20042;-76
2023/01/19 10:18:29;;;;;;;7.15;2.10;;;;;;;;;;5031949;28;20099;-75
2023/01/19 10:21:10;;;;;;;6.77;1.80;;;;;;;;;;5032470;28;20095;-76
2023/01/19 10:23:36;;;;;;;8.80;2.53;;;;;;;;;;5015545;28;20873;-75
2023/01/19 10:26:06;;;;;;;4.72;1.70;;;;;;;;;;5014185;28;20045;-75
2023/01/19 10:28:32;;;;;;;7.28;2.20;;;;;;;;;;5014492;28;20085;-75
2023/01/19 10:30:58;;;;;;;9.25;2.25;;;;;;;;;;5015374;28;20049;-76
2023/01/19 10:33:24;;;;;;;8.15;2.05;;;;;;;;;;5021578;28;20124;-75
2023/01/19 10:35:50;;;;;;;13.23;2.55;;;;;;;;;;5032169;28;20420;-75
2023/01/19 10:38:20;;;;;;;6.70;2.83;;;;;;;;;;5026629;28;20122;-76
2023/01/19 10:41:06;;;;;;;8.82;2.10;;;;;;;;;;5034059;28;20111;-75
2023/01/19 10:43:40;;;;;;;7.90;1.98;;;;;;;;;;5031399;28;20056;-76
2023/01/19 10:46:16;;;;;;;7.45;1.90;;;;;;;;;;5027521;28;20049;-76
2023/01/19 10:48:42;;;;;;;7.38;2.00;;;;;;;;;;5022019;28;20077;-75
2023/01/19 10:51:09;;;;;;;7.47;1.98;;;;;;;;;;5022043;28;20075;-75
2023/01/19 10:53:35;;;;;;;9.48;2.22;;;;;;;;;;5016434;28;20553;-75
2023/01/19 10:56:22;;;;;;;7.15;1.85;;;;;;;;;;5015667;28;20077;-76
2023/01/19 10:58:48;;;;;;;6.97;1.75;;;;;;;;;;5029559;28;20058;-74
2023/01/19 11:01:16;;;;;;;8.13;2.15;;;;;;;;;;5014770;28;20057;-75
2023/01/19 11:03:42;;;;;;;9.05;2.15;;;;;;;;;;5024742;28;20052;-75
2023/01/19 11:06:14;;;;;;;5.93;1.88;;;;;;;;;;5032905;28;20069;-75
2023/01/19 11:08:41;;;;;;;13.38;2.75;;;;;;;;;;5025003;28;20038;-75
2023/01/19 11:11:08;;;;;;;7.25;2.10;;;;;;;;;;5016364;28;20088;-76
2023/01/19 11:13:34;;;;;;;7.60;2.20;;;;;;;;;;5034140;28;20041;-75
2023/01/19 11:16:23;;;;;;;11.57;3.03;;;;;;;;;;5024578;28;20044;-75
2023/01/19 11:18:52;;;;;;;7.15;1.90;;;;;;;;;;5028047;28;20132;-75
2023/01/19 11:21:21;;;;;;;6.90;2.03;;;;;;;;;;5031454;28;20102;-75
2023/01/19 11:23:50;;;;;;;5.82;2.00;;;;;;;;;;5029303;28;20117;-80
2023/01/19 11:26:25;;;;;;;10.45;2.58;;;;;;;;;;5013368;28;20038;-76
2023/01/19 11:28:53;;;;;;;5.53;1.70;;;;;;;;;;5014399;28;20369;-76
2023/01/19 11:31:28;;;;;;;8.65;2.10;;;;;;;;;;5013692;28;20061;-75
2023/01/19 11:33:58;;;;;;;6.13;1.95;;;;;;;;;;5013918;28;20042;-75
2023/01/19 11:36:24;;;;;;;8.07;2.28;;;;;;;;;;5018221;28;20152;-75
2023/01/19 11:38:52;;;;;;;11.07;1.73;;;;;;;;;;5018335;28;20045;-75
2023/01/19 11:41:22;;;;;;;6.88;1.80;;;;;;;;;;5033855;28;20041;-75
2023/01/19 11:43:50;;;;;;;6.10;1.98;;;;;;;;;;5032188;28;20123;-75
2023/01/19 11:46:17;;;;;;;6.47;2.03;;;;;;;;;;5031081;28;20067;-75
2023/01/19 11:49:00;;;;;;;8.50;2.00;;;;;;;;;;5015675;28;20046;-75
2023/01/19 11:51:29;;;;;;;7.53;1.92;;;;;;;;;;5013866;28;20469;-75
2023/01/19 11:53:55;;;;;;;6.20;1.85;;;;;;;;;;5017120;28;20511;-75
2023/01/19 11:56:23;;;;;;;6.82;2.25;;;;;;;;;;5029392;28;20046;-75
2023/01/19 11:58:49;;;;;;;6.70;1.95;;;;;;;;;;5017333;28;20117;-75
2023/01/19 12:01:23;;;;;;;4.45;1.65;;;;;;;;;;5025249;28;20034;-75
2023/01/19 12:03:52;;;;;;;6.55;2.35;;;;;;;;;;5037462;28;20053;-75
2023/01/19 12:06:25;;;;;;;6.03;1.92;;;;;;;;;;5027524;28;20046;-75
2023/01/19 12:08:53;;;;;;;5.72;2.10;;;;;;;;;;5017464;28;20428;-75
2023/01/19 12:11:22;;;;;;;8.50;2.40;;;;;;;;;;5018419;28;20117;-75
2023/01/19 12:13:48;;;;;;;7.20;1.85;;;;;;;;;;5023022;28;20038;-75
2023/01/19 12:16:20;;;;;;;4.85;1.90;;;;;;;;;;5018235;28;20133;-75
2023/01/19 12:18:58;;;;;;;4.65;1.45;;;;;;;;;;5018146;28;20053;-75
2023/01/19 12:21:24;;;;;;;6.63;1.77;;;;;;;;;;5018690;28;20069;-75
2023/01/19 12:24:02;;;;;;;3.78;1.75;;;;;;;;;;5017526;28;20064;-75
2023/01/19 12:26:30;;;;;;;6.57;1.85;;;;;;;;;;5017224;28;20489;-75
2023/01/19 12:29:00;;;;;;;4.40;1.65;;;;;;;;;;5030805;28;20483;-75
2023/01/19 12:31:26;;;;;;;9.00;1.88;;;;;;;;;;5020358;28;20045;-75
2023/01/19 12:33:52;;;;;;;4.40;1.52;;;;;;;;;;5017179;28;20053;-75
2023/01/19 12:36:37;;;;;;;7.60;2.03;;;;;;;;;;5017498;28;20058;-75
2023/01/19 12:39:19;;;;;;;7.65;2.15;;;;;;;;;;5017357;28;20068;-75
2023/01/19 12:41:46;;;;;;;6.13;1.90;;;;;;;;;;5016886;28;20496;-75
2023/01/19 12:44:15;;;;;;;10.05;2.10;;;;;;;;;;5016975;28;20379;-75
2023/01/19 12:47:05;;;;;;;7.03;2.00;;;;;;;;;;5016919;28;20042;-75
2023/01/19 12:49:54;;;;;;;5.78;2.30;;;;;;;;;;5034995;28;20406;-75
2023/01/19 12:52:23;;;;;;;6.03;2.10;;;;;;;;;;5021200;28;20054;-75
2023/01/19 12:54:51;;;;;;;8.85;2.17;;;;;;;;;;5016841;28;20042;-75
2023/01/19 12:57:20;;;;;;;6.75;1.77;;;;;;;;;;5031860;28;20041;-75
2023/01/19 12:59:46;;;;;;;6.63;2.20;;;;;;;;;;5036701;28;20042;-77
2023/01/19 13:02:41;;;;;;;7.25;2.03;;;;;;;;;;5034915;28;20404;-76
2023/01/19 13:05:13;;;;;;;8.90;2.22;;;;;;;;;;5018797;28;20096;-76
2023/01/19 13:07:58;;;;;;;9.75;2.10;;;;;;;;;;5036574;28;20048;-75
2023/01/19 13:10:42;;;;;;;7.63;1.92;;;;;;;;;;5036324;28;20041;-75
2023/01/19 13:13:25;;;;;;;6.07;1.70;;;;;;;;;;5026857;28;20054;-75
2023/01/19 13:15:52;;;;;;;7.57;1.88;;;;;;;;;;5015970;28;20045;-75
2023/01/19 13:18:25;;;;;;;6.07;1.85;;;;;;;;;;5015996;28;20065;-75
2023/01/19 13:21:09;;;;;;;7.45;1.73;;;;;;;;;;5016494;28;20464;-75
2023/01/19 13:23:50;;;;;;;9.68;1.73;;;;;;;;;;5035451;28;20041;-75
2023/01/19 13:26:19;;;;;;;4.95;2.13;;;;;;;;;;5035486;28;20477;-75
2023/01/19 13:28:47;;;;;;;2.50;1.23;;;;;;;;;;5019538;28;20038;-75
2023/01/19 13:31:14;;;;;;;0.93;0.70;;;;;;;;;;5016267;28;20103;-75
2023/01/19 13:33:43;;;;;;;1.27;0.98;;;;;;;;;;5016088;28;20108;-75
2023/01/19 13:36:35;;;;;;;2.42;1.17;;;;;;;;;;5017457;28;20185;-75
2023/01/19 13:39:04;;;;;;;2.97;1.17;;;;;;;;;;5032736;28;20447;-75
2023/01/19 13:41:31;;;;;;;2.58;1.25;;;;;;;;;;5034919;28;20052;-75
2023/01/19 13:44:06;;;;;;;3.95;1.55;;;;;;;;;;5016296;28;20073;-75
2023/01/19 13:46:33;;;;;;;2.67;1.20;;;;;;;;;;5016243;28;20041;-75
2023/01/19 13:49:04;;;;;;;3.97;1.67;;;;;;;;;;5014713;28;20085;-75
2023/01/19 13:51:30;;;;;;;4.00;1.40;;;;;;;;;;5016400;28;20046;-75
2023/01/19 13:53:57;;;;;;;4.57;1.55;;;;;;;;;;5015309;28;20077;-75
2023/01/19 13:56:24;;;;;;;3.00;1.60;;;;;;;;;;5015849;28;20049;-75
2023/01/19 13:58:57;;;;;;;2.42;1.45;;;;;;;;;;5015398;28;20104;-75
2023/01/19 14:01:23;;;;;;;3.00;1.88;;;;;;;;;;5015570;28;20199;-75
2023/01/19 14:03:52;;;;;;;5.28;1.77;;;;;;;;;;5015688;28;20451;-75
2023/01/19 14:06:22;;;;;;;5.05;1.77;;;;;;;;;;5014951;28;20602;-75
2023/01/19 14:09:04;;;;;;;3.65;1.50;;;;;;;;;;5015179;28;20124;-75
2023/01/19 14:11:30;;;;;;;8.20;1.80;;;;;;;;;;5014903;28;20550;-75
2023/01/19 14:13:56;;;;;;;4.20;1.77;;;;;;;;;;5015011;28;20045;-75
2023/01/19 14:16:23;;;;;;;6.93;2.08;;;;;;;;;;5015473;28;20046;-75
2023/01/19 14:18:58;;;;;;;6.60;1.88;;;;;;;;;;5014379;28;20195;-75
2023/01/19 14:21:24;;;;;;;4.75;2.13;;;;;;;;;;5014498;28;20050;-75
2023/01/19 14:23:53;;;;;;;4.97;2.13;;;;;;;;;;5015213;28;20088;-75
2023/01/19 14:26:40;;;;;;;6.25;1.90;;;;;;;;;;5000002;28;20042;-75
2023/01/19 14:29:07;;;;;;;1.90;1.30;;;;;;;;;;5018335;28;20064;-75
2023/01/19 14:31:41;;;;;;;2.47;1.08;;;;;;;;;;5016244;28;20049;-75
2023/01/19 14:34:27;;;;;;;5.28;1.45;;;;;;;;;;5030826;28;20045;-75
2023/01/19 14:36:53;;;;;;;6.15;2.10;;;;;;;;;;5033820;28;20120;-75
2023/01/19 14:39:22;;;;;;;2.38;1.20;;;;;;;;;;5033821;28;20141;-75
2023/01/19 14:41:51;;;;;;;2.83;1.48;;;;;;;;;;5033758;28;20045;-75
2023/01/19 14:44:23;;;;;;;5.45;1.65;;;;;;;;;;5033498;28;20076;-75
2023/01/19 14:46:49;;;;;;;4.15;1.30;;;;;;;;;;5033395;28;20147;-75
2023/01/19 14:49:20;;;;;;;4.80;1.88;;;;;;;;;;5033605;28;20148;-75
2023/01/19 14:51:47;;;;;;;5.40;1.80;;;;;;;;;;5027960;28;20037;-75
2023/01/19 14:54:16;;;;;;;3.97;1.50;;;;;;;;;;5014081;28;20431;-75
2023/01/19 14:56:42;;;;;;;3.35;1.92;;;;;;;;;;5014662;28;20096;-75
2023/01/19 14:59:09;;;;;;;3.55;1.77;;;;;;;;;;5015154;28;20053;-75
2023/01/19 15:01:36;;;;;;;2.17;1.25;;;;;;;;;;5014661;28;20042;-75